sensor_id;sensor_type;location;lat;lon;timestamp;P1;durP1;ratioP1;P2;durP2;ratioP2
8889;SDS011;4481;43.406;24.454;2022-10-19T00:01:55;5.77;;;5.00;;
8889;SDS011;4481;43.406;24.454;2022-10-19T00:04:21;8.33;;;4.87;;
8889;SDS011;4481;43.406;24.454;2022-10-19T00:06:47;6.30;;;5.00;;
8889;SDS011;4481;43.406;24.454;2022-10-19T00:09:14;10.13;;;5.20;;
8889;SDS011;4481;43.406;24.454;2022-10-19T00:11:43;10.53;;;4.90;;
8889;SDS011;4481;43.406;24.454;2022-10-19T00:14:12;5.17;;;4.67;;
8889;SDS011;4481;43.406;24.454;2022-10-19T00:16:42;6.73;;;4.57;;
8889;SDS011;4481;43.406;24.454;2022-10-19T00:19:10;9.10;;;5.00;;
8889;SDS011;4481;43.406;24.454;2022-10-19T00:21:38;7.63;;;5.40;;
8889;SDS011;4481;43.406;24.454;2022-10-19T00:24:05;5.50;;;4.07;;
8889;SDS011;4481;43.406;24.454;2022-10-19T00:26:32;6.03;;;4.70;;
8889;SDS011;4481;43.406;24.454;2022-10-19T00:28:59;14.03;;;5.37;;
8889;SDS011;4481;43.406;24.454;2022-10-19T00:31:25;7.57;;;4.50;;
8889;SDS011;4481;43.406;24.454;2022-10-19T00:33:52;8.87;;;5.23;;
8889;SDS011;4481;43.406;24.454;2022-10-19T00:36:21;6.10;;;4.80;;
8889;SDS011;4481;43.406;24.454;2022-10-19T00:38:49;8.50;;;5.13;;
8889;SDS011;4481;43.406;24.454;2022-10-19T00:41:16;7.43;;;5.33;;
8889;SDS011;4481;43.406;24.454;2022-10-19T00:43:50;12.07;;;5.90;;
8889;SDS011;4481;43.406;24.454;2022-10-19T00:46:22;7.97;;;5.30;;
8889;SDS011;4481;43.406;24.454;2022-10-19T00:48:49;5.07;;;4.57;;
8889;SDS011;4481;43.406;24.454;2022-10-19T00:51:18;5.37;;;4.57;;
8889;SDS011;4481;43.406;24.454;2022-10-19T00:53:45;6.70;;;4.87;;
8889;SDS011;4481;43.406;24.454;2022-10-19T00:56:12;6.77;;;5.00;;
8889;SDS011;4481;43.406;24.454;2022-10-19T00:58:40;10.47;;;4.63;;
8889;SDS011;4481;43.406;24.454;2022-10-19T01:01:08;5.67;;;3.97;;
8889;SDS011;4481;43.406;24.454;2022-10-19T01:03:38;8.07;;;4.10;;
8889;SDS011;4481;43.406;24.454;2022-10-19T01:06:05;8.73;;;4.43;;
8889;SDS011;4481;43.406;24.454;2022-10-19T01:08:31;4.33;;;3.80;;
8889;SDS011;4481;43.406;24.454;2022-10-19T01:10:59;6.17;;;4.97;;
8889;SDS011;4481;43.406;24.454;2022-10-19T01:13:40;5.30;;;4.40;;
8889;SDS011;4481;43.406;24.454;2022-10-19T01:16:13;5.50;;;4.60;;
8889;SDS011;4481;43.406;24.454;2022-10-19T01:18:46;9.40;;;4.70;;
8889;SDS011;4481;43.406;24.454;2022-10-19T01:21:22;6.03;;;4.93;;
8889;SDS011;4481;43.406;24.454;2022-10-19T01:27:04;5.43;;;4.40;;
8889;SDS011;4481;43.406;24.454;2022-10-19T01:29:57;6.60;;;4.80;;
8889;SDS011;4481;43.406;24.454;2022-10-19T01:32:46;6.93;;;4.90;;
8889;SDS011;4481;43.406;24.454;2022-10-19T01:35:22;5.90;;;4.70;;
8889;SDS011;4481;43.406;24.454;2022-10-19T01:37:54;6.97;;;5.13;;
8889;SDS011;4481;43.406;24.454;2022-10-19T01:40:29;7.47;;;4.47;;
8889;SDS011;4481;43.406;24.454;2022-10-19T01:43:03;6.77;;;5.20;;
8889;SDS011;4481;43.406;24.454;2022-10-19T01:45:37;7.00;;;5.00;;
8889;SDS011;4481;43.406;24.454;2022-10-19T01:48:08;9.13;;;5.07;;
8889;SDS011;4481;43.406;24.454;2022-10-19T01:50:38;8.90;;;5.87;;
8889;SDS011;4481;43.406;24.454;2022-10-19T01:53:08;7.87;;;5.00;;
8889;SDS011;4481;43.406;24.454;2022-10-19T01:55:38;6.87;;;5.53;;
8889;SDS011;4481;43.406;24.454;2022-10-19T01:58:08;9.37;;;5.30;;
8889;SDS011;4481;43.406;24.454;2022-10-19T02:00:38;7.80;;;5.27;;
8889;SDS011;4481;43.406;24.454;2022-10-19T02:03:08;7.30;;;5.47;;
8889;SDS011;4481;43.406;24.454;2022-10-19T02:05:36;6.53;;;4.63;;
8889;SDS011;4481;43.406;24.454;2022-10-19T02:08:06;5.30;;;4.80;;
8889;SDS011;4481;43.406;24.454;2022-10-19T02:10:36;10.40;;;5.60;;
8889;SDS011;4481;43.406;24.454;2022-10-19T02:13:04;6.47;;;5.63;;
8889;SDS011;4481;43.406;24.454;2022-10-19T02:15:32;6.07;;;5.33;;
8889;SDS011;4481;43.406;24.454;2022-10-19T02:18:03;8.77;;;5.00;;
8889;SDS011;4481;43.406;24.454;2022-10-19T02:20:31;6.90;;;5.50;;
8889;SDS011;4481;43.406;24.454;2022-10-19T02:23:01;9.03;;;5.60;;
8889;SDS011;4481;43.406;24.454;2022-10-19T02:25:28;10.10;;;5.33;;
8889;SDS011;4481;43.406;24.454;2022-10-19T02:27:54;7.30;;;5.17;;
8889;SDS011;4481;43.406;24.454;2022-10-19T02:30:20;6.27;;;4.83;;
8889;SDS011;4481;43.406;24.454;2022-10-19T02:32:46;6.57;;;4.77;;
8889;SDS011;4481;43.406;24.454;2022-10-19T02:35:14;8.03;;;5.00;;
8889;SDS011;4481;43.406;24.454;2022-10-19T02:37:41;8.00;;;5.27;;
8889;SDS011;4481;43.406;24.454;2022-10-19T02:40:07;6.17;;;5.20;;
8889;SDS011;4481;43.406;24.454;2022-10-19T02:42:35;6.47;;;5.03;;
8889;SDS011;4481;43.406;24.454;2022-10-19T02:45:07;6.70;;;5.10;;
8889;SDS011;4481;43.406;24.454;2022-10-19T02:47:37;6.90;;;5.17;;
8889;SDS011;4481;43.406;24.454;2022-10-19T02:50:08;6.63;;;4.97;;
8889;SDS011;4481;43.406;24.454;2022-10-19T02:52:36;6.53;;;5.23;;
8889;SDS011;4481;43.406;24.454;2022-10-19T02:55:02;7.23;;;5.67;;
8889;SDS011;4481;43.406;24.454;2022-10-19T02:57:30;9.67;;;5.47;;
8889;SDS011;4481;43.406;24.454;2022-10-19T02:59:56;6.23;;;5.53;;
8889;SDS011;4481;43.406;24.454;2022-10-19T03:02:23;7.00;;;5.47;;
8889;SDS011;4481;43.406;24.454;2022-10-19T03:04:50;8.47;;;5.40;;
8889;SDS011;4481;43.406;24.454;2022-10-19T03:07:17;5.63;;;5.13;;
8889;SDS011;4481;43.406;24.454;2022-10-19T03:09:45;7.67;;;5.83;;
8889;SDS011;4481;43.406;24.454;2022-10-19T03:12:11;11.00;;;6.20;;
8889;SDS011;4481;43.406;24.454;2022-10-19T03:14:39;10.57;;;5.90;;
8889;SDS011;4481;43.406;24.454;2022-10-19T03:17:05;7.40;;;5.70;;
8889;SDS011;4481;43.406;24.454;2022-10-19T03:19:31;7.77;;;5.60;;
8889;SDS011;4481;43.406;24.454;2022-10-19T03:21:59;6.83;;;6.07;;
8889;SDS011;4481;43.406;24.454;2022-10-19T03:24:25;9.50;;;6.00;;
8889;SDS011;4481;43.406;24.454;2022-10-19T03:26:52;7.23;;;5.53;;
8889;SDS011;4481;43.406;24.454;2022-10-19T03:29:18;8.73;;;6.73;;
8889;SDS011;4481;43.406;24.454;2022-10-19T03:31:44;8.37;;;6.83;;
8889;SDS011;4481;43.406;24.454;2022-10-19T03:34:10;9.37;;;6.33;;
8889;SDS011;4481;43.406;24.454;2022-10-19T03:36:37;10.73;;;6.47;;
8889;SDS011;4481;43.406;24.454;2022-10-19T03:39:05;9.87;;;6.00;;
8889;SDS011;4481;43.406;24.454;2022-10-19T03:41:34;8.60;;;5.90;;
8889;SDS011;4481;43.406;24.454;2022-10-19T03:44:02;11.67;;;6.50;;
8889;SDS011;4481;43.406;24.454;2022-10-19T03:46:28;9.43;;;6.97;;
8889;SDS011;4481;43.406;24.454;2022-10-19T03:48:55;15.97;;;6.70;;
8889;SDS011;4481;43.406;24.454;2022-10-19T03:51:21;7.80;;;5.70;;
8889;SDS011;4481;43.406;24.454;2022-10-19T03:53:50;7.50;;;6.03;;
8889;SDS011;4481;43.406;24.454;2022-10-19T03:56:17;7.80;;;5.80;;
8889;SDS011;4481;43.406;24.454;2022-10-19T03:58:46;9.77;;;7.10;;
8889;SDS011;4481;43.406;24.454;2022-10-19T04:01:14;9.93;;;7.63;;
8889;SDS011;4481;43.406;24.454;2022-10-19T04:03:42;9.70;;;7.20;;
8889;SDS011;4481;43.406;24.454;2022-10-19T04:06:10;8.50;;;7.17;;
8889;SDS011;4481;43.406;24.454;2022-10-19T04:08:38;7.20;;;6.10;;
8889;SDS011;4481;43.406;24.454;2022-10-19T04:11:05;7.30;;;6.60;;
8889;SDS011;4481;43.406;24.454;2022-10-19T04:13:33;7.30;;;5.77;;
8889;SDS011;4481;43.406;24.454;2022-10-19T04:16:00;10.07;;;6.13;;
8889;SDS011;4481;43.406;24.454;2022-10-19T04:18:27;5.73;;;5.17;;
8889;SDS011;4481;43.406;24.454;2022-10-19T04:20:56;6.20;;;4.80;;
8889;SDS011;4481;43.406;24.454;2022-10-19T04:23:23;12.33;;;4.73;;
8889;SDS011;4481;43.406;24.454;2022-10-19T04:25:51;6.67;;;4.60;;
8889;SDS011;4481;43.406;24.454;2022-10-19T04:28:17;5.97;;;4.57;;
8889;SDS011;4481;43.406;24.454;2022-10-19T04:30:43;7.97;;;5.07;;
8889;SDS011;4481;43.406;24.454;2022-10-19T04:33:09;6.03;;;4.97;;
8889;SDS011;4481;43.406;24.454;2022-10-19T04:35:36;7.07;;;5.23;;
8889;SDS011;4481;43.406;24.454;2022-10-19T04:38:02;6.17;;;4.67;;
8889;SDS011;4481;43.406;24.454;2022-10-19T04:40:28;7.30;;;4.80;;
8889;SDS011;4481;43.406;24.454;2022-10-19T04:42:54;9.77;;;4.73;;
8889;SDS011;4481;43.406;24.454;2022-10-19T04:45:22;12.50;;;4.80;;
8889;SDS011;4481;43.406;24.454;2022-10-19T04:47:48;8.63;;;5.13;;
8889;SDS011;4481;43.406;24.454;2022-10-19T04:50:14;8.47;;;5.00;;
8889;SDS011;4481;43.406;24.454;2022-10-19T04:52:43;10.70;;;6.27;;
8889;SDS011;4481;43.406;24.454;2022-10-19T04:55:09;7.73;;;5.40;;
8889;SDS011;4481;43.406;24.454;2022-10-19T04:57:35;6.53;;;4.60;;
8889;SDS011;4481;43.406;24.454;2022-10-19T05:00:02;8.47;;;5.67;;
8889;SDS011;4481;43.406;24.454;2022-10-19T05:02:29;9.33;;;5.10;;
8889;SDS011;4481;43.406;24.454;2022-10-19T05:04:55;4.47;;;3.87;;
8889;SDS011;4481;43.406;24.454;2022-10-19T05:07:22;6.40;;;4.70;;
8889;SDS011;4481;43.406;24.454;2022-10-19T05:09:48;6.87;;;4.60;;
8889;SDS011;4481;43.406;24.454;2022-10-19T05:12:15;6.20;;;4.40;;
8889;SDS011;4481;43.406;24.454;2022-10-19T05:14:41;4.77;;;4.10;;
8889;SDS011;4481;43.406;24.454;2022-10-19T05:17:07;4.70;;;3.77;;
8889;SDS011;4481;43.406;24.454;2022-10-19T05:19:33;7.37;;;3.97;;
8889;SDS011;4481;43.406;24.454;2022-10-19T05:21:59;7.37;;;3.97;;
8889;SDS011;4481;43.406;24.454;2022-10-19T05:24:25;4.50;;;4.00;;
8889;SDS011;4481;43.406;24.454;2022-10-19T05:26:52;5.90;;;3.97;;
8889;SDS011;4481;43.406;24.454;2022-10-19T05:29:18;5.90;;;4.13;;
8889;SDS011;4481;43.406;24.454;2022-10-19T05:31:44;6.37;;;4.07;;
8889;SDS011;4481;43.406;24.454;2022-10-19T05:34:12;4.63;;;3.93;;
8889;SDS011;4481;43.406;24.454;2022-10-19T05:36:38;5.17;;;3.70;;
8889;SDS011;4481;43.406;24.454;2022-10-19T05:39:05;12.23;;;3.83;;
8889;SDS011;4481;43.406;24.454;2022-10-19T05:41:33;4.30;;;3.90;;
8889;SDS011;4481;43.406;24.454;2022-10-19T05:44:00;4.93;;;3.93;;
8889;SDS011;4481;43.406;24.454;2022-10-19T05:46:28;4.60;;;4.10;;
8889;SDS011;4481;43.406;24.454;2022-10-19T05:48:56;6.07;;;4.17;;
8889;SDS011;4481;43.406;24.454;2022-10-19T05:51:23;4.93;;;3.40;;
8889;SDS011;4481;43.406;24.454;2022-10-19T05:53:51;5.43;;;3.40;;
8889;SDS011;4481;43.406;24.454;2022-10-19T05:56:19;4.40;;;3.23;;
8889;SDS011;4481;43.406;24.454;2022-10-19T05:58:46;4.90;;;3.23;;
8889;SDS011;4481;43.406;24.454;2022-10-19T06:01:16;5.90;;;3.70;;
8889;SDS011;4481;43.406;24.454;2022-10-19T06:03:43;7.43;;;3.63;;
8889;SDS011;4481;43.406;24.454;2022-10-19T06:06:10;5.13;;;3.43;;
8889;SDS011;4481;43.406;24.454;2022-10-19T06:08:37;4.43;;;3.20;;
8889;SDS011;4481;43.406;24.454;2022-10-19T06:11:04;6.73;;;3.97;;
8889;SDS011;4481;43.406;24.454;2022-10-19T06:13:31;7.27;;;2.90;;
8889;SDS011;4481;43.406;24.454;2022-10-19T06:15:57;3.97;;;3.10;;
8889;SDS011;4481;43.406;24.454;2022-10-19T06:18:25;3.57;;;2.93;;
8889;SDS011;4481;43.406;24.454;2022-10-19T06:20:52;3.37;;;2.63;;
8889;SDS011;4481;43.406;24.454;2022-10-19T06:23:19;4.30;;;2.90;;
8889;SDS011;4481;43.406;24.454;2022-10-19T06:25:46;3.97;;;2.97;;
8889;SDS011;4481;43.406;24.454;2022-10-19T06:28:12;3.53;;;2.80;;
8889;SDS011;4481;43.406;24.454;2022-10-19T06:30:38;5.07;;;3.20;;
8889;SDS011;4481;43.406;24.454;2022-10-19T06:33:05;3.77;;;2.57;;
8889;SDS011;4481;43.406;24.454;2022-10-19T06:35:32;3.13;;;2.87;;
8889;SDS011;4481;43.406;24.454;2022-10-19T06:37:58;3.57;;;3.03;;
8889;SDS011;4481;43.406;24.454;2022-10-19T06:40:25;4.67;;;3.20;;
8889;SDS011;4481;43.406;24.454;2022-10-19T06:42:51;4.27;;;2.97;;
8889;SDS011;4481;43.406;24.454;2022-10-19T06:45:19;4.83;;;2.67;;
8889;SDS011;4481;43.406;24.454;2022-10-19T06:47:45;6.90;;;2.73;;
8889;SDS011;4481;43.406;24.454;2022-10-19T06:50:11;3.67;;;2.73;;
8889;SDS011;4481;43.406;24.454;2022-10-19T06:52:38;4.70;;;2.70;;
8889;SDS011;4481;43.406;24.454;2022-10-19T06:55:05;6.73;;;3.07;;
8889;SDS011;4481;43.406;24.454;2022-10-19T06:57:32;7.07;;;3.10;;
8889;SDS011;4481;43.406;24.454;2022-10-19T06:59:58;4.30;;;2.97;;
8889;SDS011;4481;43.406;24.454;2022-10-19T07:02:24;3.50;;;2.77;;
8889;SDS011;4481;43.406;24.454;2022-10-19T07:04:51;4.07;;;2.70;;
8889;SDS011;4481;43.406;24.454;2022-10-19T07:07:17;3.47;;;3.17;;
8889;SDS011;4481;43.406;24.454;2022-10-19T07:09:43;3.27;;;2.97;;
8889;SDS011;4481;43.406;24.454;2022-10-19T07:12:10;6.33;;;3.10;;
8889;SDS011;4481;43.406;24.454;2022-10-19T07:14:36;6.10;;;3.00;;
8889;SDS011;4481;43.406;24.454;2022-10-19T07:17:03;5.80;;;3.57;;
8889;SDS011;4481;43.406;24.454;2022-10-19T07:19:32;3.07;;;2.63;;
8889;SDS011;4481;43.406;24.454;2022-10-19T07:21:59;5.03;;;3.17;;
8889;SDS011;4481;43.406;24.454;2022-10-19T07:24:25;4.50;;;3.53;;
8889;SDS011;4481;43.406;24.454;2022-10-19T07:26:52;9.53;;;3.70;;
8889;SDS011;4481;43.406;24.454;2022-10-19T07:29:18;9.03;;;3.80;;
8889;SDS011;4481;43.406;24.454;2022-10-19T07:31:44;6.20;;;3.30;;
8889;SDS011;4481;43.406;24.454;2022-10-19T07:34:11;5.17;;;3.13;;
8889;SDS011;4481;43.406;24.454;2022-10-19T07:36:38;5.60;;;3.27;;
8889;SDS011;4481;43.406;24.454;2022-10-19T07:39:09;6.40;;;3.37;;
8889;SDS011;4481;43.406;24.454;2022-10-19T07:41:36;4.17;;;3.40;;
8889;SDS011;4481;43.406;24.454;2022-10-19T07:44:03;5.17;;;3.30;;
8889;SDS011;4481;43.406;24.454;2022-10-19T07:46:30;3.33;;;3.03;;
8889;SDS011;4481;43.406;24.454;2022-10-19T07:48:57;3.70;;;3.03;;
8889;SDS011;4481;43.406;24.454;2022-10-19T07:51:24;4.67;;;3.30;;
8889;SDS011;4481;43.406;24.454;2022-10-19T07:53:51;7.60;;;3.30;;
8889;SDS011;4481;43.406;24.454;2022-10-19T07:56:18;4.97;;;3.53;;
8889;SDS011;4481;43.406;24.454;2022-10-19T07:58:46;4.17;;;3.33;;
8889;SDS011;4481;43.406;24.454;2022-10-19T08:01:15;6.63;;;3.30;;
8889;SDS011;4481;43.406;24.454;2022-10-19T08:03:42;5.90;;;3.53;;
8889;SDS011;4481;43.406;24.454;2022-10-19T08:06:11;3.67;;;3.30;;
8889;SDS011;4481;43.406;24.454;2022-10-19T08:08:39;4.60;;;3.93;;
8889;SDS011;4481;43.406;24.454;2022-10-19T08:11:06;5.87;;;3.80;;
8889;SDS011;4481;43.406;24.454;2022-10-19T08:13:33;4.13;;;3.50;;
8889;SDS011;4481;43.406;24.454;2022-10-19T08:16:00;6.23;;;3.70;;
8889;SDS011;4481;43.406;24.454;2022-10-19T08:18:27;5.73;;;3.70;;
8889;SDS011;4481;43.406;24.454;2022-10-19T08:20:53;5.23;;;3.73;;
8889;SDS011;4481;43.406;24.454;2022-10-19T08:23:20;8.23;;;3.80;;
8889;SDS011;4481;43.406;24.454;2022-10-19T08:25:47;5.50;;;3.70;;
8889;SDS011;4481;43.406;24.454;2022-10-19T08:28:13;6.03;;;4.80;;
8889;SDS011;4481;43.406;24.454;2022-10-19T08:30:39;3.77;;;3.37;;
8889;SDS011;4481;43.406;24.454;2022-10-19T08:33:05;6.80;;;3.70;;
8889;SDS011;4481;43.406;24.454;2022-10-19T08:35:33;5.23;;;3.73;;
8889;SDS011;4481;43.406;24.454;2022-10-19T08:37:59;6.07;;;3.73;;
8889;SDS011;4481;43.406;24.454;2022-10-19T08:40:27;10.90;;;3.80;;
8889;SDS011;4481;43.406;24.454;2022-10-19T08:42:55;4.43;;;3.33;;
8889;SDS011;4481;43.406;24.454;2022-10-19T08:45:30;4.17;;;3.57;;
8889;SDS011;4481;43.406;24.454;2022-10-19T08:48:16;7.03;;;3.30;;
8889;SDS011;4481;43.406;24.454;2022-10-19T08:50:51;4.23;;;3.50;;
8889;SDS011;4481;43.406;24.454;2022-10-19T08:53:20;6.43;;;4.10;;
8889;SDS011;4481;43.406;24.454;2022-10-19T08:55:53;4.60;;;3.47;;
8889;SDS011;4481;43.406;24.454;2022-10-19T08:58:34;5.43;;;3.53;;
8889;SDS011;4481;43.406;24.454;2022-10-19T09:01:13;10.50;;;4.40;;
8889;SDS011;4481;43.406;24.454;2022-10-19T09:03:45;7.13;;;3.53;;
8889;SDS011;4481;43.406;24.454;2022-10-19T09:06:17;5.50;;;3.50;;
8889;SDS011;4481;43.406;24.454;2022-10-19T09:08:48;8.13;;;3.90;;
8889;SDS011;4481;43.406;24.454;2022-10-19T09:11:16;8.20;;;3.70;;
8889;SDS011;4481;43.406;24.454;2022-10-19T09:13:47;4.07;;;3.10;;
8889;SDS011;4481;43.406;24.454;2022-10-19T09:16:15;5.50;;;3.57;;
8889;SDS011;4481;43.406;24.454;2022-10-19T09:18:43;6.37;;;3.77;;
8889;SDS011;4481;43.406;24.454;2022-10-19T09:21:11;3.67;;;3.23;;
8889;SDS011;4481;43.406;24.454;2022-10-19T09:23:43;10.63;;;3.63;;
8889;SDS011;4481;43.406;24.454;2022-10-19T09:26:16;4.27;;;3.20;;
8889;SDS011;4481;43.406;24.454;2022-10-19T09:28:45;5.13;;;3.33;;
8889;SDS011;4481;43.406;24.454;2022-10-19T09:31:18;5.20;;;3.20;;
8889;SDS011;4481;43.406;24.454;2022-10-19T09:33:52;4.40;;;3.17;;
8889;SDS011;4481;43.406;24.454;2022-10-19T09:36:22;4.43;;;3.10;;
8889;SDS011;4481;43.406;24.454;2022-10-19T09:38:54;4.33;;;2.80;;
8889;SDS011;4481;43.406;24.454;2022-10-19T09:41:21;3.37;;;3.07;;
8889;SDS011;4481;43.406;24.454;2022-10-19T09:43:49;3.83;;;3.00;;
8889;SDS011;4481;43.406;24.454;2022-10-19T09:46:23;3.47;;;2.90;;
8889;SDS011;4481;43.406;24.454;2022-10-19T09:48:54;4.40;;;3.00;;
8889;SDS011;4481;43.406;24.454;2022-10-19T09:51:23;6.10;;;2.70;;
8889;SDS011;4481;43.406;24.454;2022-10-19T09:53:50;4.60;;;3.00;;
8889;SDS011;4481;43.406;24.454;2022-10-19T09:56:18;5.30;;;3.20;;
8889;SDS011;4481;43.406;24.454;2022-10-19T09:58:47;3.27;;;2.97;;
8889;SDS011;4481;43.406;24.454;2022-10-19T10:01:27;4.23;;;3.40;;
8889;SDS011;4481;43.406;24.454;2022-10-19T10:04:03;5.50;;;3.50;;
8889;SDS011;4481;43.406;24.454;2022-10-19T10:06:30;11.67;;;3.23;;
8889;SDS011;4481;43.406;24.454;2022-10-19T10:08:57;3.53;;;3.20;;
8889;SDS011;4481;43.406;24.454;2022-10-19T10:11:25;3.83;;;2.97;;
8889;SDS011;4481;43.406;24.454;2022-10-19T10:13:53;7.97;;;3.60;;
8889;SDS011;4481;43.406;24.454;2022-10-19T10:16:21;3.47;;;3.17;;
8889;SDS011;4481;43.406;24.454;2022-10-19T10:18:50;4.30;;;3.70;;
8889;SDS011;4481;43.406;24.454;2022-10-19T10:21:23;4.37;;;3.13;;
8889;SDS011;4481;43.406;24.454;2022-10-19T10:24:01;5.10;;;3.13;;
8889;SDS011;4481;43.406;24.454;2022-10-19T10:26:30;3.97;;;3.30;;
8889;SDS011;4481;43.406;24.454;2022-10-19T10:28:58;4.50;;;3.23;;
8889;SDS011;4481;43.406;24.454;2022-10-19T10:31:25;7.57;;;4.03;;
8889;SDS011;4481;43.406;24.454;2022-10-19T10:33:54;3.90;;;3.23;;
8889;SDS011;4481;43.406;24.454;2022-10-19T10:36:25;7.67;;;3.37;;
8889;SDS011;4481;43.406;24.454;2022-10-19T10:38:54;5.97;;;3.73;;
8889;SDS011;4481;43.406;24.454;2022-10-19T10:41:27;7.30;;;3.90;;
8889;SDS011;4481;43.406;24.454;2022-10-19T10:43:56;9.43;;;3.80;;
8889;SDS011;4481;43.406;24.454;2022-10-19T10:46:26;5.67;;;3.83;;
8889;SDS011;4481;43.406;24.454;2022-10-19T10:48:58;8.60;;;3.80;;
8889;SDS011;4481;43.406;24.454;2022-10-19T10:51:31;5.03;;;3.80;;
8889;SDS011;4481;43.406;24.454;2022-10-19T10:54:07;5.33;;;4.00;;
8889;SDS011;4481;43.406;24.454;2022-10-19T10:56:40;5.87;;;3.37;;
8889;SDS011;4481;43.406;24.454;2022-10-19T10:59:11;5.07;;;3.23;;
8889;SDS011;4481;43.406;24.454;2022-10-19T11:01:41;6.83;;;3.83;;
8889;SDS011;4481;43.406;24.454;2022-10-19T11:04:13;3.80;;;3.00;;
8889;SDS011;4481;43.406;24.454;2022-10-19T11:06:43;11.60;;;3.50;;
8889;SDS011;4481;43.406;24.454;2022-10-19T11:09:19;3.77;;;3.43;;
8889;SDS011;4481;43.406;24.454;2022-10-19T11:11:52;6.90;;;3.70;;
8889;SDS011;4481;43.406;24.454;2022-10-19T11:14:25;4.07;;;2.93;;
8889;SDS011;4481;43.406;24.454;2022-10-19T11:16:57;4.53;;;3.40;;
8889;SDS011;4481;43.406;24.454;2022-10-19T11:19:30;4.80;;;3.00;;
8889;SDS011;4481;43.406;24.454;2022-10-19T11:22:01;7.83;;;3.90;;
8889;SDS011;4481;43.406;24.454;2022-10-19T11:24:41;8.00;;;3.60;;
8889;SDS011;4481;43.406;24.454;2022-10-19T11:27:22;5.20;;;3.73;;
8889;SDS011;4481;43.406;24.454;2022-10-19T11:30:03;5.93;;;3.50;;
8889;SDS011;4481;43.406;24.454;2022-10-19T11:32:37;4.07;;;3.47;;
8889;SDS011;4481;43.406;24.454;2022-10-19T11:35:19;4.93;;;3.53;;
8889;SDS011;4481;43.406;24.454;2022-10-19T11:37:58;5.77;;;3.80;;
8889;SDS011;4481;43.406;24.454;2022-10-19T11:40:37;5.27;;;4.33;;
8889;SDS011;4481;43.406;24.454;2022-10-19T11:43:09;8.33;;;4.33;;
8889;SDS011;4481;43.406;24.454;2022-10-19T11:45:46;8.53;;;5.63;;
8889;SDS011;4481;43.406;24.454;2022-10-19T11:51:14;6.87;;;5.13;;
8889;SDS011;4481;43.406;24.454;2022-10-19T11:53:49;6.10;;;5.10;;
8889;SDS011;4481;43.406;24.454;2022-10-19T11:56:24;4.03;;;3.57;;
8889;SDS011;4481;43.406;24.454;2022-10-19T11:58:57;5.67;;;3.67;;
8889;SDS011;4481;43.406;24.454;2022-10-19T12:01:35;6.70;;;3.73;;
8889;SDS011;4481;43.406;24.454;2022-10-19T12:04:18;4.10;;;3.60;;
8889;SDS011;4481;43.406;24.454;2022-10-19T12:06:57;4.93;;;3.77;;
8889;SDS011;4481;43.406;24.454;2022-10-19T12:09:34;5.57;;;3.33;;
8889;SDS011;4481;43.406;24.454;2022-10-19T12:12:22;4.47;;;3.77;;
8889;SDS011;4481;43.406;24.454;2022-10-19T12:14:56;5.73;;;4.17;;
8889;SDS011;4481;43.406;24.454;2022-10-19T12:17:31;3.77;;;3.10;;
8889;SDS011;4481;43.406;24.454;2022-10-19T12:20:02;5.57;;;3.83;;
8889;SDS011;4481;43.406;24.454;2022-10-19T12:22:32;6.57;;;3.53;;
8889;SDS011;4481;43.406;24.454;2022-10-19T12:25:01;4.63;;;3.57;;
8889;SDS011;4481;43.406;24.454;2022-10-19T12:27:30;3.93;;;3.53;;
8889;SDS011;4481;43.406;24.454;2022-10-19T12:30:01;5.30;;;3.73;;
8889;SDS011;4481;43.406;24.454;2022-10-19T12:32:30;5.53;;;3.60;;
8889;SDS011;4481;43.406;24.454;2022-10-19T12:35:04;5.67;;;3.90;;
8889;SDS011;4481;43.406;24.454;2022-10-19T12:37:42;6.60;;;3.40;;
8889;SDS011;4481;43.406;24.454;2022-10-19T12:40:16;6.33;;;3.40;;
8889;SDS011;4481;43.406;24.454;2022-10-19T12:42:50;4.40;;;3.73;;
8889;SDS011;4481;43.406;24.454;2022-10-19T12:45:22;6.93;;;3.57;;
8889;SDS011;4481;43.406;24.454;2022-10-19T12:53:37;6.67;;;4.20;;
8889;SDS011;4481;43.406;24.454;2022-10-19T12:56:06;16.80;;;10.07;;
8889;SDS011;4481;43.406;24.454;2022-10-19T12:58:37;15.27;;;8.67;;
8889;SDS011;4481;43.406;24.454;2022-10-19T13:01:12;10.07;;;5.60;;
8889;SDS011;4481;43.406;24.454;2022-10-19T13:03:43;6.20;;;4.90;;
8889;SDS011;4481;43.406;24.454;2022-10-19T13:06:11;6.30;;;4.30;;
8889;SDS011;4481;43.406;24.454;2022-10-19T13:08:42;8.90;;;3.93;;
8889;SDS011;4481;43.406;24.454;2022-10-19T13:11:13;5.47;;;3.53;;
8889;SDS011;4481;43.406;24.454;2022-10-19T13:13:49;6.53;;;3.03;;
8889;SDS011;4481;43.406;24.454;2022-10-19T13:19:20;3.00;;;2.70;;
8889;SDS011;4481;43.406;24.454;2022-10-19T13:21:48;3.83;;;3.03;;
8889;SDS011;4481;43.406;24.454;2022-10-19T13:24:23;3.57;;;2.97;;
8889;SDS011;4481;43.406;24.454;2022-10-19T13:29:51;4.33;;;3.20;;
8889;SDS011;4481;43.406;24.454;2022-10-19T13:32:30;8.43;;;3.33;;
8889;SDS011;4481;43.406;24.454;2022-10-19T13:35:25;6.23;;;3.23;;
8889;SDS011;4481;43.406;24.454;2022-10-19T13:38:18;8.37;;;3.80;;
8889;SDS011;4481;43.406;24.454;2022-10-19T13:41:07;5.13;;;3.40;;
8889;SDS011;4481;43.406;24.454;2022-10-19T13:43:37;4.10;;;3.17;;
8889;SDS011;4481;43.406;24.454;2022-10-19T13:46:15;6.47;;;4.20;;
8889;SDS011;4481;43.406;24.454;2022-10-19T13:49:02;6.33;;;3.57;;
8889;SDS011;4481;43.406;24.454;2022-10-19T13:51:45;9.73;;;3.70;;
8889;SDS011;4481;43.406;24.454;2022-10-19T13:54:26;5.60;;;3.47;;
8889;SDS011;4481;43.406;24.454;2022-10-19T14:11:26;4.80;;;3.97;;
8889;SDS011;4481;43.406;24.454;2022-10-19T14:14:07;7.33;;;4.47;;
8889;SDS011;4481;43.406;24.454;2022-10-19T14:16:50;4.50;;;3.80;;
8889;SDS011;4481;43.406;24.454;2022-10-19T14:19:21;7.30;;;4.77;;
8889;SDS011;4481;43.406;24.454;2022-10-19T14:21:51;7.37;;;4.30;;
8889;SDS011;4481;43.406;24.454;2022-10-19T14:24:20;5.23;;;4.43;;
8889;SDS011;4481;43.406;24.454;2022-10-19T14:26:52;6.33;;;4.73;;
8889;SDS011;4481;43.406;24.454;2022-10-19T14:29:19;10.97;;;4.80;;
8889;SDS011;4481;43.406;24.454;2022-10-19T14:31:45;9.00;;;4.53;;
8889;SDS011;4481;43.406;24.454;2022-10-19T14:34:12;6.53;;;5.40;;
8889;SDS011;4481;43.406;24.454;2022-10-19T14:36:44;5.93;;;4.70;;
8889;SDS011;4481;43.406;24.454;2022-10-19T14:39:23;7.83;;;4.80;;
8889;SDS011;4481;43.406;24.454;2022-10-19T14:41:54;9.13;;;5.10;;
8889;SDS011;4481;43.406;24.454;2022-10-19T14:44:26;8.63;;;4.10;;
8889;SDS011;4481;43.406;24.454;2022-10-19T14:46:59;6.63;;;4.67;;
8889;SDS011;4481;43.406;24.454;2022-10-19T14:49:25;7.47;;;4.43;;
8889;SDS011;4481;43.406;24.454;2022-10-19T14:51:52;5.77;;;4.43;;
8889;SDS011;4481;43.406;24.454;2022-10-19T14:54:26;6.47;;;4.70;;
8889;SDS011;4481;43.406;24.454;2022-10-19T14:56:56;7.80;;;4.83;;
8889;SDS011;4481;43.406;24.454;2022-10-19T14:59:28;6.10;;;4.83;;
8889;SDS011;4481;43.406;24.454;2022-10-19T15:01:59;7.93;;;4.97;;
8889;SDS011;4481;43.406;24.454;2022-10-19T15:04:29;10.37;;;4.90;;
8889;SDS011;4481;43.406;24.454;2022-10-19T15:06:59;9.70;;;4.93;;
8889;SDS011;4481;43.406;24.454;2022-10-19T15:09:30;9.60;;;4.50;;
8889;SDS011;4481;43.406;24.454;2022-10-19T15:11:59;7.07;;;4.27;;
8889;SDS011;4481;43.406;24.454;2022-10-19T15:14:31;5.90;;;4.93;;
8889;SDS011;4481;43.406;24.454;2022-10-19T15:16:58;7.80;;;5.13;;
8889;SDS011;4481;43.406;24.454;2022-10-19T15:19:26;7.47;;;5.97;;
8889;SDS011;4481;43.406;24.454;2022-10-19T15:22:14;16.63;;;6.40;;
8889;SDS011;4481;43.406;24.454;2022-10-19T15:24:53;10.37;;;5.83;;
8889;SDS011;4481;43.406;24.454;2022-10-19T15:27:27;8.13;;;5.70;;
8889;SDS011;4481;43.406;24.454;2022-10-19T15:29:55;8.63;;;5.23;;
8889;SDS011;4481;43.406;24.454;2022-10-19T15:32:23;8.43;;;5.40;;
8889;SDS011;4481;43.406;24.454;2022-10-19T15:34:52;10.77;;;5.70;;
8889;SDS011;4481;43.406;24.454;2022-10-19T15:37:20;7.73;;;6.27;;
8889;SDS011;4481;43.406;24.454;2022-10-19T15:39:47;6.80;;;6.03;;
8889;SDS011;4481;43.406;24.454;2022-10-19T15:42:28;9.20;;;6.43;;
8889;SDS011;4481;43.406;24.454;2022-10-19T15:45:00;12.40;;;6.67;;
8889;SDS011;4481;43.406;24.454;2022-10-19T15:47:26;12.40;;;6.80;;
8889;SDS011;4481;43.406;24.454;2022-10-19T15:49:54;15.30;;;6.37;;